Time;durP1;ratioP1;P1;durP2;ratioP2;P2;SDS_P1;SDS_P2;PMS_P1;PMS_P2;Temp;Humidity;BMP_temperature;BMP_pressure;BME280_temperature;BME280_humidity;BME280_pressure;Samples;Min_cycle;Max_cycle;Signal;HPM_P1;HPM_P2
2022/01/27 00:01:01;;;;;;;27.13;10.77;;;0.60;99.90;;;;;;5094737;28;20016;-69
2022/01/27 00:03:49;;;;;;;28.17;9.77;;;0.50;99.90;;;;;;5076598;28;20028;-68
2022/01/27 00:06:16;;;;;;;29.25;11.52;;;0.50;99.90;;;;;;5094822;28;20365;-70
2022/01/27 00:08:54;;;;;;;28.50;11.27;;;0.50;99.90;;;;;;5095000;28;20034;-70
2022/01/27 00:11:20;;;;;;;28.45;10.95;;;0.60;99.90;;;;;;5094865;28;20031;-69
2022/01/27 00:13:48;;;;;;;31.30;11.20;;;0.60;99.90;;;;;;5077498;28;20032;-69
2022/01/27 00:16:24;;;;;;;29.90;13.70;;;0.60;99.90;;;;;;5096661;28;20354;-69
2022/01/27 00:18:52;;;;;;;31.17;10.90;;;0.60;99.90;;;;;;5094294;28;20019;-70
2022/01/27 00:21:21;;;;;;;36.60;12.07;;;0.60;99.90;;;;;;5076227;28;20465;-69
2022/01/27 00:23:48;;;;;;;31.88;12.50;;;0.60;99.90;;;;;;5094508;28;20028;-70
2022/01/27 00:26:14;;;;;;;35.20;13.05;;;0.60;99.90;;;;;;5094652;28;20488;-69
2022/01/27 00:28:41;;;;;;;35.95;12.82;;;0.60;99.90;;;;;;5076003;28;20032;-69
2022/01/27 00:31:07;;;;;;;;;;;0.60;99.90;;;;;;5094708;28;20078;-69
2022/01/27 00:33:32;;;;;;;32.17;13.00;;;0.60;99.90;;;;;;5075925;28;19963;-70
2022/01/27 00:35:58;;;;;;;32.75;12.95;;;0.50;99.90;;;;;;5093950;28;20028;-69
2022/01/27 00:38:24;;;;;;;36.28;12.68;;;0.60;99.90;;;;;;5093887;28;20465;-69
2022/01/27 00:40:50;;;;;;;35.27;12.60;;;0.50;99.90;;;;;;5093862;28;20073;-70
2022/01/27 00:43:17;;;;;;;37.13;12.55;;;0.50;99.90;;;;;;5093702;28;20032;-69
2022/01/27 00:45:42;;;;;;;34.00;12.50;;;0.60;99.90;;;;;;5075610;28;20032;-69
2022/01/27 00:48:08;;;;;;;31.57;12.03;;;0.60;99.90;;;;;;5075522;28;20027;-68
2022/01/27 00:50:37;;;;;;;30.33;13.00;;;0.60;99.90;;;;;;5075544;28;20249;-69
2022/01/27 00:53:06;;;;;;;38.75;13.02;;;0.60;99.90;;;;;;5093729;28;20012;-68
2022/01/27 00:55:38;;;;;;;34.42;12.25;;;0.60;99.90;;;;;;5075548;28;20103;-68
2022/01/27 00:58:25;;;;;;;33.00;11.57;;;0.70;99.90;;;;;;5093802;28;20070;-69
2022/01/27 01:00:57;;;;;;;27.55;11.00;;;0.70;99.90;;;;;;5093909;28;20016;-69
2022/01/27 01:03:31;;;;;;;34.20;12.75;;;0.70;99.90;;;;;;5075360;28;20032;-69
2022/01/27 01:16:16;;;;;;;40.67;13.73;;;0.50;99.90;;;;;;5093667;28;20016;-69
2022/01/27 01:18:53;;;;;;;46.13;16.40;;;0.60;99.90;;;;;;5093233;28;20012;-69
2022/01/27 01:34:32;;;;;;;38.17;14.38;;;0.60;99.90;;;;;;5093226;28;20009;-68
2022/01/27 01:37:02;;;;;;;32.55;12.80;;;0.60;99.90;;;;;;5074813;28;20024;-69
2022/01/27 01:39:33;;;;;;;32.40;12.15;;;0.70;99.90;;;;;;5093007;28;20017;-69
2022/01/27 01:42:06;;;;;;;36.05;13.27;;;0.60;99.90;;;;;;5092978;28;20028;-69
2022/01/27 01:44:32;;;;;;;33.28;14.18;;;0.60;99.90;;;;;;5075344;28;20043;-68
2022/01/27 01:46:59;;;;;;;32.08;13.07;;;0.60;99.90;;;;;;5074731;28;20114;-68
2022/01/27 01:49:26;;;;;;;36.90;13.70;;;0.60;99.90;;;;;;5093026;28;20070;-69
2022/01/27 01:51:52;;;;;;;36.65;13.95;;;0.60;99.90;;;;;;5092732;28;20020;-68
2022/01/27 01:54:18;;;;;;;;;;;0.50;99.90;;;;;;5075121;28;20048;-68
2022/01/27 01:56:44;;;;;;;39.17;14.68;;;0.50;99.90;;;;;;5092758;28;19993;-67
2022/01/27 01:59:10;;;;;;;35.78;13.68;;;0.50;99.90;;;;;;5092719;28;20023;-68
2022/01/27 02:01:37;;;;;;;44.83;14.18;;;0.60;99.90;;;;;;5092817;28;20115;-68
2022/01/27 02:04:08;;;;;;;41.50;14.45;;;0.60;99.90;;;;;;5074529;28;20404;-69
2022/01/27 02:06:41;;;;;;;39.97;14.80;;;0.60;99.90;;;;;;5092635;28;20027;-68
2022/01/27 02:20:06;;;;;;;35.08;13.27;;;0.60;99.90;;;;;;5093050;28;20035;-69
2022/01/27 02:22:32;;;;;;;42.75;14.50;;;0.60;99.90;;;;;;5074750;28;20028;-68
2022/01/27 02:24:57;;;;;;;42.97;14.87;;;0.50;99.90;;;;;;5092883;28;20081;-67
2022/01/27 02:27:23;;;;;;;39.37;15.20;;;0.50;99.90;;;;;;5092559;28;20023;-69
2022/01/27 02:29:49;;;;;;;36.50;13.80;;;0.60;99.90;;;;;;5074489;28;20028;-69
2022/01/27 02:32:16;;;;;;;33.72;12.80;;;0.60;99.90;;;;;;5092864;28;20024;-70
2022/01/27 02:34:42;;;;;;;38.58;14.13;;;0.60;99.90;;;;;;5092625;28;20020;-69
2022/01/27 02:37:09;;;;;;;35.20;14.27;;;0.60;99.90;;;;;;5092912;28;20024;-69
2022/01/27 02:39:36;;;;;;;36.67;14.88;;;0.60;99.90;;;;;;5092916;28;20506;-69
2022/01/27 02:42:09;;;;;;;39.22;14.80;;;0.60;99.90;;;;;;5092178;28;20024;-69
2022/01/27 02:44:53;;;;;;;38.72;14.13;;;0.50;99.90;;;;;;5096454;28;20110;-69
2022/01/27 02:47:20;;;;;;;41.60;15.32;;;0.50;99.90;;;;;;5096064;28;20362;-69
2022/01/27 02:49:46;;;;;;;38.60;13.75;;;0.40;99.90;;;;;;5077731;28;20031;-69
2022/01/27 02:52:12;;;;;;;39.33;13.55;;;0.40;99.90;;;;;;5095701;28;20030;-69
2022/01/27 02:54:37;;;;;;;35.10;13.27;;;0.30;99.90;;;;;;5095858;28;20028;-69
2022/01/27 02:57:04;;;;;;;43.33;15.23;;;0.30;99.90;;;;;;5077661;28;20310;-69
2022/01/27 02:59:29;;;;;;;33.97;13.43;;;0.30;99.90;;;;;;5095733;28;20047;-68
2022/01/27 03:01:55;;;;;;;39.30;14.33;;;0.20;99.90;;;;;;5077513;28;20060;-69
2022/01/27 03:04:24;;;;;;;41.25;15.32;;;0.20;99.90;;;;;;5095498;28;20353;-68
2022/01/27 03:06:50;;;;;;;43.40;14.82;;;0.20;99.90;;;;;;5077590;28;20035;-68
2022/01/27 03:09:16;;;;;;;38.80;14.90;;;0.20;99.90;;;;;;5095622;28;20177;-68
2022/01/27 03:11:48;;;;;;;43.57;15.27;;;0.20;99.90;;;;;;5095694;28;20504;-68
2022/01/27 03:14:20;;;;;;;43.53;14.80;;;0.20;99.90;;;;;;5095401;28;20054;-68
2022/01/27 03:16:46;;;;;;;39.60;15.35;;;0.20;99.90;;;;;;5095446;28;20017;-69
2022/01/27 03:19:12;;;;;;;41.92;15.13;;;0.20;99.90;;;;;;5095385;28;20362;-69
2022/01/27 03:21:38;;;;;;;43.78;15.32;;;0.20;99.90;;;;;;5095687;28;20433;-69
2022/01/27 03:24:04;;;;;;;44.97;15.15;;;0.10;99.90;;;;;;5077233;28;20142;-68
2022/01/27 03:26:31;;;;;;;43.08;15.23;;;0.10;99.90;;;;;;5077077;28;20077;-68
2022/01/27 03:28:57;;;;;;;49.70;16.50;;;0.10;99.90;;;;;;5095179;28;20024;-68
2022/01/27 03:31:23;;;;;;;40.55;14.32;;;0.10;99.90;;;;;;5095074;28;20115;-68
2022/01/27 03:33:49;;;;;;;40.20;14.37;;;0.10;99.90;;;;;;5095062;28;20051;-68
2022/01/27 03:36:14;;;;;;;39.50;14.97;;;0.10;99.90;;;;;;5095124;28;20473;-68
2022/01/27 03:38:40;;;;;;;46.33;16.90;;;0.10;99.90;;;;;;5095226;28;20016;-68
2022/01/27 03:41:08;;;;;;;44.55;15.07;;;0.20;99.90;;;;;;5076855;28;20059;-68
2022/01/27 03:43:35;;;;;;;41.22;14.98;;;0.20;99.90;;;;;;5094882;28;20052;-68
2022/01/27 03:46:01;;;;;;;41.95;15.02;;;0.10;99.90;;;;;;5094810;28;20461;-69
2022/01/27 03:48:27;;;;;;;39.70;15.15;;;0.10;99.90;;;;;;5076651;28;20431;-69
2022/01/27 03:50:53;;;;;;;47.73;16.00;;;0.10;99.90;;;;;;5076791;28;20032;-69
2022/01/27 03:53:18;;;;;;;45.40;15.27;;;0.10;99.90;;;;;;5094993;28;20258;-69
2022/01/27 03:55:45;;;;;;;40.40;15.23;;;0.20;99.90;;;;;;5093885;28;20060;-69
2022/01/27 03:58:10;;;;;;;39.10;15.25;;;0.20;99.90;;;;;;5094727;28;20048;-69
2022/01/27 04:00:36;;;;;;;38.27;13.43;;;0.10;99.90;;;;;;5095887;28;20024;-69
2022/01/27 04:03:06;;;;;;;37.50;14.10;;;0.10;99.90;;;;;;5104348;28;20024;-69
2022/01/27 04:05:42;;;;;;;39.72;15.70;;;0.10;99.90;;;;;;5081229;28;20028;-69
2022/01/27 04:08:11;;;;;;;38.75;14.25;;;0.20;99.90;;;;;;5077071;28;20541;-67
2022/01/27 04:10:37;;;;;;;39.38;13.73;;;0.10;99.90;;;;;;5076966;28;20185;-69
2022/01/27 04:13:05;;;;;;;39.20;14.82;;;0.20;99.90;;;;;;5077711;28;20047;-68
2022/01/27 04:15:31;;;;;;;38.60;14.55;;;0.20;99.90;;;;;;5076749;28;20449;-69
2022/01/27 04:17:57;;;;;;;43.63;16.73;;;0.20;99.90;;;;;;5094622;28;20472;-68
2022/01/27 04:20:23;;;;;;;41.47;14.90;;;0.10;99.90;;;;;;5094624;28;20047;-68
2022/01/27 04:22:49;;;;;;;39.75;13.52;;;0.10;99.90;;;;;;5094495;28;20077;-68
2022/01/27 04:25:15;;;;;;;40.85;14.60;;;0.10;99.90;;;;;;5094429;28;20024;-69
2022/01/27 04:27:46;;;;;;;44.30;16.08;;;0.10;99.90;;;;;;5094706;28;20036;-68
2022/01/27 04:30:17;;;;;;;36.22;13.27;;;0.10;99.90;;;;;;5076449;28;20464;-68
2022/01/27 04:32:50;;;;;;;35.13;13.15;;;0.10;99.90;;;;;;5077115;28;20024;-68
2022/01/27 04:35:19;;;;;;;41.50;16.20;;;0.10;99.90;;;;;;5076622;28;20024;-68
2022/01/27 04:40:45;;;;;;;38.88;13.73;;;0.10;99.90;;;;;;5065056;28;20043;-68
2022/01/27 04:43:26;;;;;;;37.38;14.80;;;0.10;99.90;;;;;;5094154;28;20024;-69
2022/01/27 04:48:22;;;;;;;32.60;12.27;;;0.10;99.90;;;;;;5101118;28;20024;-69
2022/01/27 04:50:48;;;;;;;38.67;12.95;;;0.20;99.90;;;;;;5103279;28;20024;-69
2022/01/27 04:53:21;;;;;;;40.38;14.48;;;0.20;99.90;;;;;;5077496;28;20020;-68
2022/01/27 04:55:46;;;;;;;35.78;13.23;;;0.20;99.90;;;;;;5093779;28;20035;-68
2022/01/27 04:58:19;;;;;;;40.00;14.73;;;0.20;99.90;;;;;;5093891;28;20012;-69
2022/01/27 05:00:45;;;;;;;37.20;14.65;;;0.20;99.90;;;;;;5093840;28;20069;-68
2022/01/27 05:03:31;;;;;;;34.38;13.30;;;0.20;99.90;;;;;;5094247;28;20020;-68
2022/01/27 05:05:56;;;;;;;34.22;13.93;;;0.20;99.90;;;;;;5093531;28;20092;-69
2022/01/27 05:08:22;;;;;;;43.60;15.73;;;0.10;99.90;;;;;;5093704;28;20024;-68
2022/01/27 05:10:56;;;;;;;39.15;13.48;;;0.10;99.90;;;;;;5093401;28;20036;-68
2022/01/27 05:13:25;;;;;;;39.90;13.95;;;0.10;99.90;;;;;;5093467;28;20035;-67
2022/01/27 05:15:51;;;;;;;41.70;15.70;;;0.10;99.90;;;;;;5093392;28;20099;-68
2022/01/27 05:18:17;;;;;;;36.03;14.50;;;0.10;99.90;;;;;;5075273;28;20105;-68
2022/01/27 05:20:42;;;;;;;39.83;13.73;;;0.10;99.90;;;;;;5075203;28;20032;-69
2022/01/27 05:23:08;;;;;;;35.35;13.70;;;0.10;99.90;;;;;;5075741;28;20024;-70
2022/01/27 05:25:34;;;;;;;38.50;14.63;;;0.10;99.90;;;;;;5093884;28;20443;-69
2022/01/27 05:28:00;;;;;;;33.67;14.07;;;0.10;99.90;;;;;;5075651;28;20396;-67
2022/01/27 05:30:26;;;;;;;40.53;13.75;;;0.10;99.90;;;;;;5093214;28;20077;-67
2022/01/27 05:32:52;;;;;;;36.50;12.97;;;0.10;99.90;;;;;;5093282;28;20028;-69
2022/01/27 05:35:18;;;;;;;32.80;12.83;;;0.10;99.90;;;;;;5093757;28;20028;-69
2022/01/27 05:37:43;;;;;;;34.30;13.15;;;0.10;99.90;;;;;;5093832;28;20465;-68
2022/01/27 05:40:10;;;;;;;37.43;13.07;;;0.20;99.90;;;;;;5093513;28;20028;-68
2022/01/27 05:42:35;;;;;;;33.65;12.65;;;0.10;99.90;;;;;;5075381;28;20024;-68
2022/01/27 05:45:01;;;;;;;33.47;13.50;;;0.10;99.90;;;;;;5093423;28;20441;-68
2022/01/27 05:47:27;;;;;;;39.05;14.57;;;0.20;99.90;;;;;;5093639;28;20017;-68
2022/01/27 05:49:53;;;;;;;36.10;14.03;;;0.10;99.90;;;;;;5093224;28;20032;-68
2022/01/27 05:52:19;;;;;;;38.45;13.55;;;0.10;99.90;;;;;;5093253;28;20063;-68
2022/01/27 05:54:45;;;;;;;39.00;13.02;;;0.10;99.90;;;;;;5074987;28;20024;-70
2022/01/27 05:57:12;;;;;;;38.47;13.60;;;0.10;99.90;;;;;;5093594;28;20021;-69
2022/01/27 05:59:38;;;;;;;37.25;12.65;;;0.10;99.90;;;;;;5093499;28;20042;-69
2022/01/27 06:02:04;;;;;;;43.90;14.77;;;0.10;99.90;;;;;;5093524;28;20028;-72
2022/01/27 06:04:29;;;;;;;39.00;14.07;;;0.10;99.90;;;;;;5076656;28;20078;-70
2022/01/27 06:06:55;;;;;;;36.77;14.23;;;0.10;99.90;;;;;;5077470;28;20051;-73
2022/01/27 06:09:21;;;;;;;36.60;13.80;;;0.10;99.90;;;;;;5093243;28;20028;-71
2022/01/27 06:11:46;;;;;;;45.60;14.90;;;0.10;99.90;;;;;;5093356;28;20274;-71
2022/01/27 06:14:12;;;;;;;36.13;13.23;;;0.10;99.90;;;;;;5075240;28;20028;-72
2022/01/27 06:16:38;;;;;;;36.77;12.90;;;0.10;99.90;;;;;;5075192;28;20361;-71
2022/01/27 06:19:06;;;;;;;37.30;14.00;;;0.20;99.90;;;;;;5078813;28;20043;-71
2022/01/27 06:21:34;;;;;;;39.60;14.27;;;0.10;99.90;;;;;;5078787;28;20028;-71
2022/01/27 06:24:00;;;;;;;39.97;14.13;;;0.20;99.90;;;;;;5096637;28;20487;-70
2022/01/27 06:26:28;;;;;;;35.03;13.38;;;0.20;99.90;;;;;;5078507;28;20063;-71
2022/01/27 06:28:53;;;;;;;36.08;13.15;;;0.20;99.90;;;;;;5078134;28;20039;-70
2022/01/27 06:31:19;;;;;;;36.07;13.37;;;0.20;99.90;;;;;;5081246;28;20023;-70
2022/01/27 06:33:45;;;;;;;32.27;12.23;;;0.20;99.90;;;;;;5098452;28;20090;-70
2022/01/27 06:36:11;;;;;;;42.55;14.38;;;0.30;99.90;;;;;;5096612;28;20449;-70
2022/01/27 06:38:36;;;;;;;42.97;14.07;;;0.40;99.90;;;;;;5096700;28;20062;-70
2022/01/27 06:41:02;;;;;;;39.27;13.60;;;0.30;99.90;;;;;;5096261;28;20028;-71
2022/01/27 06:43:27;;;;;;;37.87;12.80;;;0.40;99.90;;;;;;5078287;28;20473;-70
2022/01/27 06:45:53;;;;;;;37.10;13.43;;;0.40;99.90;;;;;;5094959;28;20031;-70
2022/01/27 06:48:18;;;;;;;32.90;12.30;;;0.40;99.90;;;;;;5079230;28;20400;-71
2022/01/27 06:50:48;;;;;;;32.13;12.10;;;0.40;99.90;;;;;;5077996;28;20024;-71
2022/01/27 06:53:13;;;;;;;29.85;11.63;;;0.50;99.90;;;;;;5077384;28;20388;-71
2022/01/27 06:55:39;;;;;;;34.23;12.30;;;0.40;99.90;;;;;;5096536;28;20156;-71
2022/01/27 06:58:05;;;;;;;28.10;10.77;;;0.40;99.90;;;;;;5096389;28;20024;-72
2022/01/27 07:00:30;;;;;;;33.33;10.87;;;0.30;99.90;;;;;;5080357;28;20059;-71
2022/01/27 07:02:56;;;;;;;30.60;10.60;;;0.30;99.90;;;;;;5095821;28;20058;-71
2022/01/27 07:05:21;;;;;;;27.17;10.40;;;0.30;99.90;;;;;;5077638;28;20129;-70
2022/01/27 07:07:47;;;;;;;29.63;11.33;;;0.30;99.90;;;;;;5095808;28;20024;-71
2022/01/27 07:10:13;;;;;;;31.10;11.23;;;0.30;99.90;;;;;;5077451;28;20074;-71
2022/01/27 07:12:40;;;;;;;28.67;10.03;;;0.30;99.90;;;;;;5077381;28;20032;-71
2022/01/27 07:15:06;;;;;;;31.95;11.50;;;0.30;99.90;;;;;;5077336;28;20039;-71
2022/01/27 07:17:32;;;;;;;29.52;11.30;;;0.30;99.90;;;;;;5095715;28;20027;-72
2022/01/27 07:19:57;;;;;;;30.77;11.50;;;0.30;99.90;;;;;;5095568;28;20103;-71
2022/01/27 07:22:23;;;;;;;27.80;11.37;;;0.30;99.90;;;;;;5077379;28;20062;-71
2022/01/27 07:24:49;;;;;;;25.70;10.10;;;0.30;99.90;;;;;;5095753;28;20020;-71
2022/01/27 07:27:14;;;;;;;22.90;9.47;;;0.40;99.90;;;;;;5095516;28;20028;-71
2022/01/27 07:29:40;;;;;;;24.43;9.67;;;0.30;99.90;;;;;;5094150;28;20337;-70
2022/01/27 07:32:06;;;;;;;29.77;10.27;;;0.30;99.90;;;;;;5095349;28;20050;-68
2022/01/27 07:34:32;;;;;;;20.25;8.93;;;0.30;99.90;;;;;;5076772;28;20069;-68
2022/01/27 07:37:00;;;;;;;21.73;8.50;;;0.30;99.90;;;;;;5076990;28;20048;-70
2022/01/27 07:39:26;;;;;;;19.63;8.15;;;0.30;99.90;;;;;;5077119;28;20392;-70
2022/01/27 07:41:51;;;;;;;21.27;8.13;;;0.30;99.90;;;;;;5097384;28;20071;-69
2022/01/27 07:44:17;;;;;;;20.73;7.13;;;0.20;99.90;;;;;;5079914;28;20032;-70
2022/01/27 07:46:43;;;;;;;19.30;7.20;;;0.20;99.90;;;;;;5078552;28;20036;-70
2022/01/27 07:49:08;;;;;;;19.60;8.00;;;0.20;99.90;;;;;;5096383;28;20077;-70
2022/01/27 07:51:34;;;;;;;20.20;7.63;;;0.20;99.90;;;;;;5076841;28;20384;-70
2022/01/27 07:54:00;;;;;;;22.83;8.67;;;0.20;99.90;;;;;;5097391;28;20030;-70
2022/01/27 07:56:26;;;;;;;18.87;8.20;;;0.20;99.90;;;;;;5076554;28;20039;-69
2022/01/27 07:58:52;;;;;;;15.82;7.38;;;0.20;99.90;;;;;;5094832;28;20020;-71
2022/01/27 08:01:18;;;;;;;20.42;7.97;;;0.30;99.90;;;;;;5076341;28;20020;-70
2022/01/27 08:03:44;;;;;;;20.35;7.53;;;0.40;99.90;;;;;;5094336;28;20113;-70
2022/01/27 08:06:10;;;;;;;19.42;7.43;;;0.40;99.90;;;;;;5076276;28;20040;-69
2022/01/27 08:08:35;;;;;;;19.40;7.67;;;0.30;99.90;;;;;;5094510;28;20578;-70
2022/01/27 08:11:01;;;;;;;21.08;8.93;;;0.30;99.90;;;;;;5076380;28;20550;-69
2022/01/27 08:13:27;;;;;;;19.75;8.73;;;0.30;99.90;;;;;;5094468;28;20035;-69
2022/01/27 08:15:53;;;;;;;21.60;8.47;;;0.30;99.90;;;;;;5094772;28;20028;-70
2022/01/27 08:18:20;;;;;;;22.52;9.55;;;0.30;99.90;;;;;;5076747;28;20449;-70
2022/01/27 08:20:47;;;;;;;20.90;8.63;;;0.30;99.90;;;;;;5076544;28;20036;-69
2022/01/27 08:23:14;;;;;;;22.88;8.85;;;0.40;99.90;;;;;;5094349;28;20024;-70
2022/01/27 08:25:43;;;;;;;27.65;9.90;;;0.40;99.90;;;;;;5095358;28;20024;-70
2022/01/27 08:28:20;;;;;;;29.42;12.02;;;0.30;99.90;;;;;;5094658;28;20047;-70
2022/01/27 08:30:50;;;;;;;33.45;13.32;;;0.30;99.90;;;;;;5094814;28;20412;-70
2022/01/27 08:33:18;;;;;;;30.77;11.75;;;0.30;99.90;;;;;;5076329;28;20024;-70
2022/01/27 08:35:44;;;;;;;33.13;11.93;;;0.20;99.90;;;;;;5076112;28;20020;-70
2022/01/27 08:38:09;;;;;;;32.37;13.07;;;0.20;99.90;;;;;;5095115;28;20021;-70
2022/01/27 08:40:36;;;;;;;32.27;12.87;;;0.20;99.90;;;;;;5094852;28;20815;-70
2022/01/27 08:43:05;;;;;;;33.88;12.75;;;0.20;99.90;;;;;;5094308;28;20027;-69
2022/01/27 08:45:31;;;;;;;32.53;12.52;;;0.20;99.90;;;;;;5094276;28;20412;-70
2022/01/27 08:47:58;;;;;;;33.20;13.15;;;0.20;99.90;;;;;;5078961;28;20027;-69
2022/01/27 08:50:25;;;;;;;33.42;13.48;;;0.20;99.90;;;;;;5096849;28;20496;-71
2022/01/27 08:52:51;;;;;;;36.20;13.95;;;0.10;99.90;;;;;;5077996;28;20503;-70
2022/01/27 08:55:17;;;;;;;39.78;14.02;;;0.10;99.90;;;;;;5094344;28;20114;-70
2022/01/27 08:57:43;;;;;;;44.63;15.95;;;0.10;99.90;;;;;;5093922;28;20039;-70
2022/01/27 09:00:11;;;;;;;38.08;14.48;;;0.10;99.90;;;;;;5094099;28;20028;-69
2022/01/27 09:02:37;;;;;;;37.88;14.85;;;0.10;99.90;;;;;;5075523;28;20020;-70
2022/01/27 09:05:04;;;;;;;39.10;16.27;;;0.10;99.90;;;;;;5075882;28;20020;-69
2022/01/27 09:07:30;;;;;;;44.55;15.70;;;0.10;99.90;;;;;;5094433;28;20028;-69
2022/01/27 09:09:56;;;;;;;40.70;16.38;;;0.20;99.90;;;;;;5094502;28;20038;-70
2022/01/27 09:12:22;;;;;;;47.90;17.47;;;0.20;99.90;;;;;;5094481;28;20062;-71
2022/01/27 09:14:47;;;;;;;38.42;15.55;;;0.20;99.90;;;;;;5093965;28;20035;-69
2022/01/27 09:17:15;;;;;;;43.13;15.60;;;0.20;99.90;;;;;;5093317;28;20028;-70
2022/01/27 09:19:43;;;;;;;45.17;16.13;;;0.20;99.90;;;;;;5093368;28;20024;-69
2022/01/27 09:22:13;;;;;;;43.20;16.98;;;0.20;99.90;;;;;;5093182;28;20049;-69
2022/01/27 09:24:51;;;;;;;44.75;15.98;;;0.20;99.90;;;;;;5093397;28;20020;-69
2022/01/27 09:27:17;;;;;;;47.70;18.08;;;0.20;99.90;;;;;;5075014;28;20028;-69
2022/01/27 09:29:45;;;;;;;49.50;18.00;;;0.20;99.90;;;;;;5074933;28;20065;-70
2022/01/27 09:32:11;;;;;;;51.08;18.13;;;0.30;99.90;;;;;;5092944;28;20028;-69
2022/01/27 09:34:37;;;;;;;54.63;17.63;;;0.30;99.90;;;;;;5093563;28;20397;-69
2022/01/27 09:37:04;;;;;;;53.47;19.00;;;0.30;99.90;;;;;;5093437;28;20030;-69
2022/01/27 09:39:34;;;;;;;50.10;18.23;;;0.30;99.90;;;;;;5093453;28;20024;-69
2022/01/27 09:42:01;;;;;;;49.72;17.63;;;0.40;99.90;;;;;;5078032;28;20492;-70
2022/01/27 09:44:29;;;;;;;48.75;18.08;;;0.40;99.90;;;;;;5092977;28;20115;-69
2022/01/27 09:47:01;;;;;;;44.25;17.38;;;0.50;99.90;;;;;;5074912;28;20484;-69
2022/01/27 09:49:38;;;;;;;50.17;17.83;;;0.60;99.90;;;;;;5092831;28;20024;-70
2022/01/27 09:52:04;;;;;;;55.17;18.30;;;0.60;99.90;;;;;;5075073;28;20027;-70
2022/01/27 09:54:30;;;;;;;;;;;0.60;99.90;;;;;;5079262;28;20024;-70
2022/01/27 09:56:56;;;;;;;48.20;16.55;;;0.70;99.90;;;;;;5096848;28;19992;-70
2022/01/27 09:59:23;;;;;;;47.55;18.13;;;0.80;99.90;;;;;;5097350;28;20483;-70
2022/01/27 10:01:56;;;;;;;50.03;16.67;;;0.80;99.90;;;;;;5097182;28;20028;-70
2022/01/27 10:04:24;;;;;;;47.63;16.17;;;0.90;99.90;;;;;;5097724;28;20024;-70
2022/01/27 10:06:57;;;;;;;50.42;17.52;;;0.90;99.90;;;;;;5079181;28;20020;-69
2022/01/27 10:09:27;;;;;;;50.90;17.15;;;0.90;99.90;;;;;;5080931;28;20039;-70
2022/01/27 10:11:53;;;;;;;48.17;16.90;;;0.90;99.90;;;;;;5079586;28;20449;-69
2022/01/27 10:14:27;;;;;;;48.50;18.13;;;0.90;99.90;;;;;;5097520;28;20051;-70
2022/01/27 10:17:00;;;;;;;49.38;17.10;;;0.90;99.90;;;;;;5078689;28;20206;-69
2022/01/27 10:19:26;;;;;;;47.40;16.58;;;0.90;99.90;;;;;;5096821;28;20541;-70
2022/01/27 10:22:01;;;;;;;48.85;16.83;;;0.90;99.90;;;;;;5096645;28;20111;-71
2022/01/27 10:24:30;;;;;;;47.95;18.17;;;1.00;99.90;;;;;;5096724;28;20028;-69
2022/01/27 10:27:28;;;;;;;45.08;17.35;;;1.00;99.90;;;;;;5078246;28;20424;-70
2022/01/27 10:32:42;;;;;;;52.80;18.98;;;1.10;99.90;;;;;;5097573;28;20074;-70
2022/01/27 10:35:09;;;;;;;50.25;18.73;;;1.20;99.90;;;;;;5100538;28;20016;-69
2022/01/27 10:38:04;;;;;;;50.80;17.45;;;1.20;99.90;;;;;;5079980;28;20027;-70
2022/01/27 10:40:36;;;;;;;40.97;14.90;;;1.20;99.90;;;;;;5079285;28;20024;-70
2022/01/27 10:43:16;;;;;;;45.83;16.42;;;1.20;99.90;;;;;;5097150;28;20107;-70
2022/01/27 10:46:05;;;;;;;46.17;16.05;;;1.30;99.90;;;;;;5079454;28;20028;-70
2022/01/27 10:48:34;;;;;;;49.10;16.55;;;1.30;99.90;;;;;;5079081;28;20473;-70
2022/01/27 10:53:50;;;;;;;42.27;15.93;;;1.40;99.90;;;;;;5100442;28;20376;-70
2022/01/27 10:56:21;;;;;;;45.25;16.48;;;1.40;99.90;;;;;;5097926;28;20069;-70
2022/01/27 10:58:47;;;;;;;40.50;15.80;;;1.40;99.90;;;;;;5079234;28;20016;-70
2022/01/27 11:01:22;;;;;;;38.23;14.83;;;1.50;99.90;;;;;;5098197;28;20517;-69
2022/01/27 11:03:53;;;;;;;43.55;16.25;;;1.50;99.90;;;;;;5098577;28;20031;-70
2022/01/27 11:06:20;;;;;;;37.83;14.55;;;1.60;99.90;;;;;;5099020;28;20028;-70
2022/01/27 11:08:47;;;;;;;33.75;14.43;;;1.60;99.90;;;;;;5098783;28;20024;-70
2022/01/27 11:11:13;;;;;;;34.80;14.00;;;1.60;99.90;;;;;;5099268;28;20020;-70
2022/01/27 11:13:43;;;;;;;40.90;14.07;;;1.60;99.90;;;;;;5080356;28;20024;-70
2022/01/27 11:16:12;;;;;;;35.25;14.00;;;1.60;99.90;;;;;;5080662;28;20054;-70
2022/01/27 11:18:39;;;;;;;37.50;15.07;;;1.70;99.90;;;;;;5079169;28;20016;-70
2022/01/27 11:21:11;;;;;;;;;;;1.80;99.90;;;;;;5078915;28;20062;-69
2022/01/27 11:26:12;;;;;;;37.35;13.30;;;1.90;99.90;;;;;;5097117;28;20032;-70
2022/01/27 11:28:43;;;;;;;33.05;12.90;;;2.00;99.90;;;;;;5079123;28;20024;-69
2022/01/27 11:31:33;;;;;;;32.90;13.10;;;2.10;99.90;;;;;;5079735;28;20028;-69
2022/01/27 11:34:10;;;;;;;32.65;13.70;;;2.30;99.90;;;;;;5096800;28;20028;-70
2022/01/27 11:36:37;;;;;;;36.40;14.38;;;2.40;99.90;;;;;;5096031;28;20012;-71
2022/01/27 11:39:09;;;;;;;32.65;12.95;;;2.40;99.90;;;;;;5079077;28;20381;-70
2022/01/27 11:41:43;;;;;;;32.88;14.23;;;2.60;99.90;;;;;;5097087;28;20055;-70
2022/01/27 11:44:33;;;;;;;33.92;14.18;;;2.60;99.90;;;;;;5096179;28;20024;-68
2022/01/27 11:47:19;;;;;;;32.25;13.70;;;2.60;99.90;;;;;;5095420;28;20110;-69
2022/01/27 11:50:09;;;;;;;32.28;13.60;;;2.60;99.90;;;;;;5095739;28;20046;-70
2022/01/27 11:52:51;;;;;;;32.22;13.13;;;2.60;99.90;;;;;;5095550;28;20473;-71
2022/01/27 11:55:26;;;;;;;30.33;13.88;;;2.60;99.90;;;;;;5095410;28;20024;-70
2022/01/27 11:58:00;;;;;;;33.33;13.05;;;2.60;99.90;;;;;;5095032;28;20013;-70
2022/01/27 12:00:30;;;;;;;34.83;12.98;;;2.60;99.90;;;;;;5094871;28;20024;-70
2022/01/27 12:02:56;;;;;;;36.45;13.60;;;2.60;99.90;;;;;;5094933;28;20031;-69
2022/01/27 12:05:21;;;;;;;30.57;13.00;;;2.60;99.90;;;;;;5094825;28;20017;-70
2022/01/27 12:08:09;;;;;;;37.55;13.63;;;2.60;99.90;;;;;;5076721;28;20109;-69
2022/01/27 12:10:44;;;;;;;33.45;13.90;;;2.60;99.90;;;;;;5094523;28;20028;-70
2022/01/27 12:13:25;;;;;;;30.55;12.75;;;2.60;99.90;;;;;;5094604;28;20024;-70
2022/01/27 12:16:10;;;;;;;30.90;12.35;;;2.70;99.90;;;;;;5075712;28;20043;-69
2022/01/27 12:18:37;;;;;;;32.17;12.95;;;2.70;99.90;;;;;;5076557;28;20020;-69
2022/01/27 12:21:32;;;;;;;34.67;13.55;;;2.70;99.90;;;;;;5094814;28;20102;-69
2022/01/27 12:24:18;;;;;;;36.22;13.45;;;2.70;99.90;;;;;;5077622;28;20020;-70
2022/01/27 12:27:03;;;;;;;32.03;13.18;;;2.80;99.90;;;;;;5094640;28;20073;-69
2022/01/27 12:29:40;;;;;;;32.75;12.73;;;2.80;99.90;;;;;;5094665;28;20058;-69
2022/01/27 12:32:07;;;;;;;33.58;14.10;;;2.80;99.90;;;;;;5094354;28;20024;-69
2022/01/27 12:34:35;;;;;;;31.90;14.10;;;2.80;99.90;;;;;;5094467;28;20092;-69
2022/01/27 12:37:09;;;;;;;30.58;13.07;;;2.80;99.90;;;;;;5094069;28;20028;-70
2022/01/27 12:39:44;;;;;;;30.23;12.18;;;2.80;99.90;;;;;;5076608;28;20045;-70
2022/01/27 12:42:15;;;;;;;31.50;13.43;;;2.80;99.90;;;;;;5075598;28;20477;-70
2022/01/27 12:44:53;;;;;;;31.70;13.00;;;2.80;99.90;;;;;;5075811;28;20032;-69
2022/01/27 12:47:18;;;;;;;27.30;12.13;;;2.80;99.90;;;;;;5093999;28;20032;-69
2022/01/27 12:49:51;;;;;;;26.90;11.50;;;2.90;99.90;;;;;;5094033;28;20044;-69
2022/01/27 12:52:25;;;;;;;28.52;12.05;;;3.00;99.90;;;;;;5093963;28;20024;-69
2022/01/27 12:54:51;;;;;;;30.65;12.27;;;3.00;99.90;;;;;;5075647;28;20031;-69
2022/01/27 12:57:28;;;;;;;27.85;12.02;;;3.00;99.90;;;;;;5094119;28;20106;-69
2022/01/27 12:59:56;;;;;;;28.17;12.20;;;3.10;99.90;;;;;;5075458;28;20024;-70
2022/01/27 13:02:23;;;;;;;28.58;13.00;;;3.10;99.90;;;;;;5075445;28;20105;-69
2022/01/27 13:04:51;;;;;;;29.88;13.50;;;3.00;99.90;;;;;;5093965;28;20358;-69
2022/01/27 13:07:20;;;;;;;26.95;12.93;;;2.90;99.90;;;;;;5075227;28;20028;-69
2022/01/27 13:09:53;;;;;;;29.00;13.52;;;2.90;99.90;;;;;;5075073;28;20028;-69
2022/01/27 13:12:24;;;;;;;31.17;13.43;;;3.00;99.90;;;;;;5093562;28;20493;-69
2022/01/27 13:14:59;;;;;;;30.75;12.95;;;3.00;99.90;;;;;;5093388;28;20028;-69
2022/01/27 13:17:32;;;;;;;30.35;13.00;;;2.90;99.90;;;;;;5094681;28;20020;-69
2022/01/27 13:20:12;;;;;;;26.83;12.45;;;3.00;99.90;;;;;;5076151;28;20023;-69
2022/01/27 13:22:52;;;;;;;29.10;13.25;;;3.10;99.90;;;;;;5096406;28;20025;-70
2022/01/27 13:25:20;;;;;;;25.15;12.02;;;3.20;99.90;;;;;;5078534;28;20063;-70
2022/01/27 13:28:03;;;;;;;29.73;13.10;;;3.10;99.90;;;;;;5079267;28;20111;-67
2022/01/27 13:30:31;;;;;;;29.63;13.32;;;3.10;99.90;;;;;;5097906;28;20028;-70
2022/01/27 13:32:58;;;;;;;27.50;12.85;;;3.00;99.90;;;;;;5096154;28;20020;-69
2022/01/27 13:35:23;;;;;;;26.50;12.27;;;3.00;99.90;;;;;;5097167;28;20016;-68